sensor_id;sensor_type;location;lat;lon;timestamp;P1;durP1;ratioP1;P2;durP2;ratioP2
15356;SDS011;7778;48.792;9.260;2023-02-04T00:02:15;3.22;;;2.05;;
15356;SDS011;7778;48.792;9.260;2023-02-04T00:05:00;3.53;;;2.38;;
15356;SDS011;7778;48.792;9.260;2023-02-04T00:07:52;7.10;;;2.22;;
15356;SDS011;7778;48.792;9.260;2023-02-04T00:10:39;2.80;;;2.10;;
15356;SDS011;7778;48.792;9.260;2023-02-04T00:13:24;3.97;;;2.33;;
15356;SDS011;7778;48.792;9.260;2023-02-04T00:16:10;2.55;;;1.85;;
15356;SDS011;7778;48.792;9.260;2023-02-04T00:18:57;2.63;;;1.80;;
15356;SDS011;7778;48.792;9.260;2023-02-04T00:21:42;2.22;;;1.75;;
15356;SDS011;7778;48.792;9.260;2023-02-04T00:24:28;2.95;;;1.88;;
15356;SDS011;7778;48.792;9.260;2023-02-04T00:27:14;2.92;;;2.03;;
15356;SDS011;7778;48.792;9.260;2023-02-04T00:30:00;1.50;;;1.40;;
15356;SDS011;7778;48.792;9.260;2023-02-04T00:32:46;3.40;;;2.15;;
15356;SDS011;7778;48.792;9.260;2023-02-04T00:35:33;2.35;;;2.00;;
15356;SDS011;7778;48.792;9.260;2023-02-04T00:38:20;4.20;;;2.08;;
15356;SDS011;7778;48.792;9.260;2023-02-04T00:41:06;1.90;;;1.50;;
15356;SDS011;7778;48.792;9.260;2023-02-04T00:43:51;4.35;;;1.80;;
15356;SDS011;7778;48.792;9.260;2023-02-04T00:46:37;2.78;;;1.92;;
15356;SDS011;7778;48.792;9.260;2023-02-04T00:49:22;2.08;;;1.80;;
15356;SDS011;7778;48.792;9.260;2023-02-04T00:52:09;3.53;;;1.60;;
15356;SDS011;7778;48.792;9.260;2023-02-04T00:54:55;3.67;;;2.05;;
15356;SDS011;7778;48.792;9.260;2023-02-04T00:57:40;2.20;;;1.85;;
15356;SDS011;7778;48.792;9.260;2023-02-04T01:00:26;3.17;;;1.80;;
15356;SDS011;7778;48.792;9.260;2023-02-04T01:03:11;1.83;;;1.55;;
15356;SDS011;7778;48.792;9.260;2023-02-04T01:05:57;4.40;;;2.40;;
15356;SDS011;7778;48.792;9.260;2023-02-04T01:08:44;4.82;;;2.10;;
15356;SDS011;7778;48.792;9.260;2023-02-04T01:11:29;2.78;;;1.70;;
15356;SDS011;7778;48.792;9.260;2023-02-04T01:14:15;2.00;;;1.73;;
15356;SDS011;7778;48.792;9.260;2023-02-04T01:17:01;4.10;;;1.77;;
15356;SDS011;7778;48.792;9.260;2023-02-04T01:19:46;2.78;;;1.92;;
15356;SDS011;7778;48.792;9.260;2023-02-04T01:22:32;3.88;;;2.00;;
15356;SDS011;7778;48.792;9.260;2023-02-04T01:25:19;4.70;;;2.03;;
15356;SDS011;7778;48.792;9.260;2023-02-04T01:28:05;4.35;;;2.60;;
15356;SDS011;7778;48.792;9.260;2023-02-04T01:30:50;5.35;;;2.67;;
15356;SDS011;7778;48.792;9.260;2023-02-04T01:33:36;3.55;;;2.05;;
15356;SDS011;7778;48.792;9.260;2023-02-04T01:36:21;2.67;;;2.03;;
15356;SDS011;7778;48.792;9.260;2023-02-04T01:39:07;4.10;;;2.03;;
15356;SDS011;7778;48.792;9.260;2023-02-04T01:41:54;2.78;;;1.83;;
15356;SDS011;7778;48.792;9.260;2023-02-04T01:44:40;3.67;;;2.22;;
15356;SDS011;7778;48.792;9.260;2023-02-04T01:47:25;4.93;;;2.40;;
15356;SDS011;7778;48.792;9.260;2023-02-04T01:50:12;3.97;;;2.30;;
15356;SDS011;7778;48.792;9.260;2023-02-04T01:53:00;3.13;;;2.30;;
15356;SDS011;7778;48.792;9.260;2023-02-04T01:55:46;4.45;;;2.83;;
15356;SDS011;7778;48.792;9.260;2023-02-04T01:58:33;5.18;;;1.88;;
15356;SDS011;7778;48.792;9.260;2023-02-04T02:01:32;2.92;;;1.75;;
15356;SDS011;7778;48.792;9.260;2023-02-04T02:04:22;3.95;;;2.03;;
15356;SDS011;7778;48.792;9.260;2023-02-04T02:07:14;2.58;;;1.60;;
15356;SDS011;7778;48.792;9.260;2023-02-04T02:09:59;5.13;;;1.42;;
15356;SDS011;7778;48.792;9.260;2023-02-04T02:12:46;2.28;;;1.30;;
15356;SDS011;7778;48.792;9.260;2023-02-04T02:15:34;3.03;;;1.58;;
15356;SDS011;7778;48.792;9.260;2023-02-04T02:18:20;9.38;;;1.30;;
15356;SDS011;7778;48.792;9.260;2023-02-04T02:21:08;2.08;;;1.70;;
15356;SDS011;7778;48.792;9.260;2023-02-04T02:23:57;5.30;;;1.40;;
15356;SDS011;7778;48.792;9.260;2023-02-04T02:26:43;2.53;;;1.20;;
15356;SDS011;7778;48.792;9.260;2023-02-04T02:29:29;6.50;;;1.70;;
15356;SDS011;7778;48.792;9.260;2023-02-04T02:32:14;3.92;;;1.20;;
15356;SDS011;7778;48.792;9.260;2023-02-04T02:35:01;3.10;;;1.42;;
15356;SDS011;7778;48.792;9.260;2023-02-04T02:37:47;2.17;;;1.30;;
15356;SDS011;7778;48.792;9.260;2023-02-04T02:40:34;4.45;;;1.23;;
15356;SDS011;7778;48.792;9.260;2023-02-04T02:43:21;4.78;;;1.33;;
15356;SDS011;7778;48.792;9.260;2023-02-04T02:46:09;1.77;;;1.27;;
15356;SDS011;7778;48.792;9.260;2023-02-04T02:48:54;2.03;;;1.20;;
15356;SDS011;7778;48.792;9.260;2023-02-04T02:51:40;2.38;;;1.33;;
15356;SDS011;7778;48.792;9.260;2023-02-04T02:54:27;3.63;;;1.38;;
15356;SDS011;7778;48.792;9.260;2023-02-04T02:57:17;2.05;;;1.40;;
15356;SDS011;7778;48.792;9.260;2023-02-04T03:00:12;3.40;;;1.13;;
15356;SDS011;7778;48.792;9.260;2023-02-04T03:03:00;4.75;;;1.60;;
15356;SDS011;7778;48.792;9.260;2023-02-04T03:05:50;6.00;;;1.60;;
15356;SDS011;7778;48.792;9.260;2023-02-04T03:08:41;2.45;;;1.30;;
15356;SDS011;7778;48.792;9.260;2023-02-04T03:11:28;5.88;;;2.33;;
15356;SDS011;7778;48.792;9.260;2023-02-04T03:14:16;3.05;;;1.83;;
15356;SDS011;7778;48.792;9.260;2023-02-04T03:17:03;4.30;;;2.10;;
15356;SDS011;7778;48.792;9.260;2023-02-04T03:19:51;2.55;;;1.65;;
15356;SDS011;7778;48.792;9.260;2023-02-04T03:22:36;3.85;;;1.65;;
15356;SDS011;7778;48.792;9.260;2023-02-04T03:25:22;5.57;;;1.70;;
15356;SDS011;7778;48.792;9.260;2023-02-04T03:28:09;3.50;;;1.30;;
15356;SDS011;7778;48.792;9.260;2023-02-04T03:30:56;5.82;;;2.00;;
15356;SDS011;7778;48.792;9.260;2023-02-04T03:33:42;9.15;;;1.98;;
15356;SDS011;7778;48.792;9.260;2023-02-04T03:36:28;5.32;;;1.95;;
15356;SDS011;7778;48.792;9.260;2023-02-04T03:39:14;6.28;;;1.73;;
15356;SDS011;7778;48.792;9.260;2023-02-04T03:42:00;6.13;;;1.77;;
15356;SDS011;7778;48.792;9.260;2023-02-04T03:44:46;2.53;;;1.48;;
15356;SDS011;7778;48.792;9.260;2023-02-04T03:47:33;2.03;;;1.52;;
15356;SDS011;7778;48.792;9.260;2023-02-04T03:50:19;6.07;;;2.08;;
15356;SDS011;7778;48.792;9.260;2023-02-04T03:53:04;3.53;;;1.67;;
15356;SDS011;7778;48.792;9.260;2023-02-04T03:55:50;6.28;;;1.90;;
15356;SDS011;7778;48.792;9.260;2023-02-04T03:58:35;5.75;;;1.40;;
15356;SDS011;7778;48.792;9.260;2023-02-04T04:01:20;4.55;;;1.55;;
15356;SDS011;7778;48.792;9.260;2023-02-04T04:04:07;4.03;;;1.45;;
15356;SDS011;7778;48.792;9.260;2023-02-04T04:06:53;4.88;;;1.25;;
15356;SDS011;7778;48.792;9.260;2023-02-04T04:09:39;4.72;;;1.52;;
15356;SDS011;7778;48.792;9.260;2023-02-04T04:12:25;3.40;;;1.35;;
15356;SDS011;7778;48.792;9.260;2023-02-04T04:15:10;6.85;;;1.65;;
15356;SDS011;7778;48.792;9.260;2023-02-04T04:17:56;6.10;;;1.88;;
15356;SDS011;7778;48.792;9.260;2023-02-04T04:20:43;2.50;;;1.63;;
15356;SDS011;7778;48.792;9.260;2023-02-04T04:23:28;8.65;;;2.33;;
15356;SDS011;7778;48.792;9.260;2023-02-04T04:26:14;3.85;;;1.70;;
15356;SDS011;7778;48.792;9.260;2023-02-04T04:29:00;5.25;;;1.23;;
15356;SDS011;7778;48.792;9.260;2023-02-04T04:31:45;6.28;;;2.10;;
15356;SDS011;7778;48.792;9.260;2023-02-04T04:34:31;7.28;;;1.75;;
15356;SDS011;7778;48.792;9.260;2023-02-04T04:37:18;3.47;;;1.85;;
15356;SDS011;7778;48.792;9.260;2023-02-04T04:40:05;4.35;;;1.63;;
15356;SDS011;7778;48.792;9.260;2023-02-04T04:42:51;2.78;;;1.50;;
15356;SDS011;7778;48.792;9.260;2023-02-04T04:45:37;10.25;;;2.10;;
15356;SDS011;7778;48.792;9.260;2023-02-04T04:48:22;4.82;;;2.10;;
15356;SDS011;7778;48.792;9.260;2023-02-04T04:51:08;5.40;;;1.58;;
15356;SDS011;7778;48.792;9.260;2023-02-04T04:53:54;7.40;;;2.20;;
15356;SDS011;7778;48.792;9.260;2023-02-04T04:56:40;3.30;;;1.83;;
15356;SDS011;7778;48.792;9.260;2023-02-04T04:59:26;5.95;;;1.52;;
15356;SDS011;7778;48.792;9.260;2023-02-04T05:02:12;5.90;;;1.80;;
15356;SDS011;7778;48.792;9.260;2023-02-04T05:04:58;3.47;;;1.77;;
15356;SDS011;7778;48.792;9.260;2023-02-04T05:07:43;3.45;;;1.90;;
15356;SDS011;7778;48.792;9.260;2023-02-04T05:10:30;2.20;;;1.75;;
15356;SDS011;7778;48.792;9.260;2023-02-04T05:13:16;3.50;;;1.50;;
15356;SDS011;7778;48.792;9.260;2023-02-04T05:16:02;3.90;;;1.88;;
15356;SDS011;7778;48.792;9.260;2023-02-04T05:18:49;6.35;;;2.22;;
15356;SDS011;7778;48.792;9.260;2023-02-04T05:21:34;6.10;;;1.95;;
15356;SDS011;7778;48.792;9.260;2023-02-04T05:24:20;5.32;;;2.70;;
15356;SDS011;7778;48.792;9.260;2023-02-04T05:27:06;3.80;;;1.90;;
15356;SDS011;7778;48.792;9.260;2023-02-04T05:29:52;4.00;;;1.83;;
15356;SDS011;7778;48.792;9.260;2023-02-04T05:32:38;7.30;;;2.55;;
15356;SDS011;7778;48.792;9.260;2023-02-04T05:35:24;3.53;;;2.45;;
15356;SDS011;7778;48.792;9.260;2023-02-04T05:38:09;4.15;;;2.55;;
15356;SDS011;7778;48.792;9.260;2023-02-04T05:40:55;4.97;;;2.15;;
15356;SDS011;7778;48.792;9.260;2023-02-04T05:43:42;2.97;;;2.20;;
15356;SDS011;7778;48.792;9.260;2023-02-04T05:46:28;3.65;;;2.40;;
15356;SDS011;7778;48.792;9.260;2023-02-04T05:49:13;10.45;;;2.90;;
15356;SDS011;7778;48.792;9.260;2023-02-04T05:51:59;5.93;;;2.25;;
15356;SDS011;7778;48.792;9.260;2023-02-04T05:54:48;6.20;;;3.00;;
15356;SDS011;7778;48.792;9.260;2023-02-04T05:57:34;4.80;;;2.72;;
15356;SDS011;7778;48.792;9.260;2023-02-04T06:00:21;7.38;;;3.05;;
15356;SDS011;7778;48.792;9.260;2023-02-04T06:03:06;4.82;;;2.50;;
15356;SDS011;7778;48.792;9.260;2023-02-04T06:05:52;3.90;;;2.55;;
15356;SDS011;7778;48.792;9.260;2023-02-04T06:08:37;6.53;;;2.78;;
15356;SDS011;7778;48.792;9.260;2023-02-04T06:11:23;5.13;;;3.30;;
15356;SDS011;7778;48.792;9.260;2023-02-04T06:14:09;6.40;;;3.10;;
15356;SDS011;7778;48.792;9.260;2023-02-04T06:16:55;6.93;;;3.40;;
15356;SDS011;7778;48.792;9.260;2023-02-04T06:19:42;9.82;;;4.30;;
15356;SDS011;7778;48.792;9.260;2023-02-04T06:22:28;7.13;;;3.47;;
15356;SDS011;7778;48.792;9.260;2023-02-04T06:25:13;6.63;;;3.22;;
15356;SDS011;7778;48.792;9.260;2023-02-04T06:27:59;16.65;;;4.63;;
15356;SDS011;7778;48.792;9.260;2023-02-04T06:30:45;8.27;;;3.63;;
15356;SDS011;7778;48.792;9.260;2023-02-04T06:33:33;4.95;;;3.03;;
15356;SDS011;7778;48.792;9.260;2023-02-04T06:36:19;10.07;;;3.55;;
15356;SDS011;7778;48.792;9.260;2023-02-04T06:39:05;6.40;;;2.90;;
15356;SDS011;7778;48.792;9.260;2023-02-04T06:41:50;10.10;;;2.80;;
15356;SDS011;7778;48.792;9.260;2023-02-04T06:44:36;8.60;;;3.70;;
15356;SDS011;7778;48.792;9.260;2023-02-04T06:47:21;4.90;;;2.60;;
15356;SDS011;7778;48.792;9.260;2023-02-04T06:50:09;8.85;;;3.10;;
15356;SDS011;7778;48.792;9.260;2023-02-04T06:52:55;8.55;;;3.00;;
15356;SDS011;7778;48.792;9.260;2023-02-04T06:55:40;5.65;;;2.80;;
15356;SDS011;7778;48.792;9.260;2023-02-04T06:58:26;10.27;;;3.60;;
15356;SDS011;7778;48.792;9.260;2023-02-04T07:01:11;5.85;;;2.88;;
15356;SDS011;7778;48.792;9.260;2023-02-04T07:03:57;10.35;;;3.58;;
15356;SDS011;7778;48.792;9.260;2023-02-04T07:06:44;8.10;;;3.47;;
15356;SDS011;7778;48.792;9.260;2023-02-04T07:09:29;5.63;;;2.75;;
15356;SDS011;7778;48.792;9.260;2023-02-04T07:12:15;8.75;;;3.55;;
15356;SDS011;7778;48.792;9.260;2023-02-04T07:15:00;4.70;;;2.53;;
15356;SDS011;7778;48.792;9.260;2023-02-04T07:17:46;10.43;;;3.13;;
15356;SDS011;7778;48.792;9.260;2023-02-04T07:20:31;11.82;;;3.10;;
15356;SDS011;7778;48.792;9.260;2023-02-04T07:23:18;5.53;;;2.90;;
15356;SDS011;7778;48.792;9.260;2023-02-04T07:26:04;11.00;;;4.50;;
15356;SDS011;7778;48.792;9.260;2023-02-04T07:28:50;9.90;;;3.80;;
15356;SDS011;7778;48.792;9.260;2023-02-04T07:31:36;11.50;;;3.42;;
15356;SDS011;7778;48.792;9.260;2023-02-04T07:34:21;7.53;;;2.90;;
15356;SDS011;7778;48.792;9.260;2023-02-04T07:37:07;12.88;;;3.70;;
15356;SDS011;7778;48.792;9.260;2023-02-04T07:39:54;9.68;;;3.25;;
15356;SDS011;7778;48.792;9.260;2023-02-04T07:42:40;7.75;;;3.40;;
15356;SDS011;7778;48.792;9.260;2023-02-04T07:45:26;9.90;;;3.63;;
15356;SDS011;7778;48.792;9.260;2023-02-04T07:48:11;10.82;;;3.00;;
15356;SDS011;7778;48.792;9.260;2023-02-04T07:50:57;8.98;;;2.65;;
15356;SDS011;7778;48.792;9.260;2023-02-04T07:53:42;9.15;;;4.05;;
15356;SDS011;7778;48.792;9.260;2023-02-04T07:56:29;6.75;;;2.80;;
15356;SDS011;7778;48.792;9.260;2023-02-04T07:59:15;12.55;;;3.40;;
15356;SDS011;7778;48.792;9.260;2023-02-04T08:02:00;14.70;;;5.05;;
15356;SDS011;7778;48.792;9.260;2023-02-04T08:04:46;12.60;;;4.65;;
15356;SDS011;7778;48.792;9.260;2023-02-04T08:07:32;18.73;;;5.55;;
15356;SDS011;7778;48.792;9.260;2023-02-04T08:10:17;13.68;;;4.22;;
15356;SDS011;7778;48.792;9.260;2023-02-04T08:13:05;12.98;;;3.58;;
15356;SDS011;7778;48.792;9.260;2023-02-04T08:15:51;8.07;;;3.22;;
15356;SDS011;7778;48.792;9.260;2023-02-04T08:18:36;8.05;;;3.10;;
15356;SDS011;7778;48.792;9.260;2023-02-04T08:21:22;10.52;;;3.15;;
15356;SDS011;7778;48.792;9.260;2023-02-04T08:24:08;7.15;;;3.20;;
15356;SDS011;7778;48.792;9.260;2023-02-04T08:26:53;10.55;;;4.03;;
15356;SDS011;7778;48.792;9.260;2023-02-04T08:29:42;8.93;;;3.65;;
15356;SDS011;7778;48.792;9.260;2023-02-04T08:32:27;10.27;;;3.58;;
15356;SDS011;7778;48.792;9.260;2023-02-04T08:35:14;8.55;;;3.35;;
15356;SDS011;7778;48.792;9.260;2023-02-04T08:37:59;8.60;;;3.15;;
15356;SDS011;7778;48.792;9.260;2023-02-04T08:40:45;11.95;;;2.85;;
15356;SDS011;7778;48.792;9.260;2023-02-04T08:43:30;5.72;;;2.28;;
15356;SDS011;7778;48.792;9.260;2023-02-04T08:46:17;7.53;;;2.78;;
15356;SDS011;7778;48.792;9.260;2023-02-04T08:49:02;12.15;;;3.42;;
15356;SDS011;7778;48.792;9.260;2023-02-04T08:51:48;4.60;;;2.33;;
15356;SDS011;7778;48.792;9.260;2023-02-04T08:54:34;10.57;;;3.55;;
15356;SDS011;7778;48.792;9.260;2023-02-04T08:57:19;7.90;;;2.88;;
15356;SDS011;7778;48.792;9.260;2023-02-04T09:00:05;7.57;;;3.22;;
15356;SDS011;7778;48.792;9.260;2023-02-04T09:02:55;8.32;;;2.90;;
15356;SDS011;7778;48.792;9.260;2023-02-04T09:05:40;4.93;;;2.17;;
15356;SDS011;7778;48.792;9.260;2023-02-04T09:08:26;10.10;;;3.50;;
15356;SDS011;7778;48.792;9.260;2023-02-04T09:11:11;34.67;;;4.22;;
15356;SDS011;7778;48.792;9.260;2023-02-04T09:13:58;16.02;;;3.47;;
15356;SDS011;7778;48.792;9.260;2023-02-04T09:16:43;10.07;;;4.05;;
15356;SDS011;7778;48.792;9.260;2023-02-04T09:19:30;14.80;;;3.67;;
15356;SDS011;7778;48.792;9.260;2023-02-04T09:22:15;6.95;;;2.90;;
15356;SDS011;7778;48.792;9.260;2023-02-04T09:25:01;11.10;;;3.40;;
15356;SDS011;7778;48.792;9.260;2023-02-04T09:27:47;9.88;;;3.22;;
15356;SDS011;7778;48.792;9.260;2023-02-04T09:30:33;9.00;;;3.15;;
15356;SDS011;7778;48.792;9.260;2023-02-04T09:33:19;16.17;;;3.60;;
15356;SDS011;7778;48.792;9.260;2023-02-04T09:36:06;11.85;;;2.70;;
15356;SDS011;7778;48.792;9.260;2023-02-04T09:38:53;7.43;;;2.97;;
15356;SDS011;7778;48.792;9.260;2023-02-04T09:41:39;6.05;;;3.20;;
15356;SDS011;7778;48.792;9.260;2023-02-04T09:44:25;7.53;;;2.60;;
15356;SDS011;7778;48.792;9.260;2023-02-04T09:47:12;4.25;;;2.38;;
15356;SDS011;7778;48.792;9.260;2023-02-04T09:50:08;8.88;;;3.28;;
15356;SDS011;7778;48.792;9.260;2023-02-04T09:53:00;10.18;;;3.15;;
15356;SDS011;7778;48.792;9.260;2023-02-04T09:55:49;7.47;;;2.60;;
15356;SDS011;7778;48.792;9.260;2023-02-04T09:58:36;6.85;;;2.45;;
15356;SDS011;7778;48.792;9.260;2023-02-04T10:01:21;5.97;;;2.55;;
15356;SDS011;7778;48.792;9.260;2023-02-04T10:04:07;14.75;;;2.97;;
15356;SDS011;7778;48.792;9.260;2023-02-04T10:06:57;8.10;;;2.72;;
15356;SDS011;7778;48.792;9.260;2023-02-04T10:09:44;6.85;;;2.05;;
15356;SDS011;7778;48.792;9.260;2023-02-04T10:12:32;8.70;;;2.72;;
15356;SDS011;7778;48.792;9.260;2023-02-04T10:15:18;11.20;;;2.78;;
15356;SDS011;7778;48.792;9.260;2023-02-04T10:18:05;9.15;;;3.45;;
15356;SDS011;7778;48.792;9.260;2023-02-04T10:20:53;8.18;;;3.10;;
15356;SDS011;7778;48.792;9.260;2023-02-04T10:23:42;11.95;;;2.38;;
15356;SDS011;7778;48.792;9.260;2023-02-04T10:26:33;8.82;;;2.50;;
15356;SDS011;7778;48.792;9.260;2023-02-04T10:29:19;8.82;;;2.75;;
15356;SDS011;7778;48.792;9.260;2023-02-04T10:35:18;6.03;;;1.80;;
15356;SDS011;7778;48.792;9.260;2023-02-04T10:38:06;8.18;;;2.17;;
15356;SDS011;7778;48.792;9.260;2023-02-04T10:41:00;7.18;;;2.83;;
15356;SDS011;7778;48.792;9.260;2023-02-04T10:43:47;8.68;;;2.35;;
15356;SDS011;7778;48.792;9.260;2023-02-04T10:46:47;8.15;;;1.88;;
15356;SDS011;7778;48.792;9.260;2023-02-04T10:49:33;7.70;;;2.60;;
15356;SDS011;7778;48.792;9.260;2023-02-04T10:52:19;6.57;;;1.52;;
15356;SDS011;7778;48.792;9.260;2023-02-04T10:55:07;8.27;;;2.35;;
15356;SDS011;7778;48.792;9.260;2023-02-04T10:57:58;9.10;;;2.30;;
15356;SDS011;7778;48.792;9.260;2023-02-04T11:00:49;5.55;;;2.03;;
15356;SDS011;7778;48.792;9.260;2023-02-04T11:03:35;6.43;;;2.10;;
15356;SDS011;7778;48.792;9.260;2023-02-04T11:06:23;8.95;;;2.40;;
15356;SDS011;7778;48.792;9.260;2023-02-04T11:09:10;11.70;;;1.60;;
15356;SDS011;7778;48.792;9.260;2023-02-04T11:11:58;7.07;;;1.38;;
15356;SDS011;7778;48.792;9.260;2023-02-04T11:14:53;5.13;;;1.65;;
15356;SDS011;7778;48.792;9.260;2023-02-04T11:17:40;9.10;;;2.22;;
15356;SDS011;7778;48.792;9.260;2023-02-04T11:20:29;6.80;;;2.90;;
15356;SDS011;7778;48.792;9.260;2023-02-04T11:23:32;8.63;;;2.08;;
15356;SDS011;7778;48.792;9.260;2023-02-04T11:26:30;13.13;;;2.60;;
15356;SDS011;7778;48.792;9.260;2023-02-04T11:29:24;14.18;;;2.95;;
15356;SDS011;7778;48.792;9.260;2023-02-04T11:32:27;9.55;;;2.25;;
15356;SDS011;7778;48.792;9.260;2023-02-04T11:35:25;16.45;;;2.30;;
15356;SDS011;7778;48.792;9.260;2023-02-04T11:38:23;10.80;;;2.95;;
15356;SDS011;7778;48.792;9.260;2023-02-04T11:41:13;18.50;;;3.40;;
15356;SDS011;7778;48.792;9.260;2023-02-04T11:44:06;7.13;;;1.92;;
15356;SDS011;7778;48.792;9.260;2023-02-04T11:46:54;10.07;;;3.38;;
15356;SDS011;7778;48.792;9.260;2023-02-04T11:49:40;8.60;;;2.50;;
15356;SDS011;7778;48.792;9.260;2023-02-04T11:52:28;7.85;;;2.30;;
15356;SDS011;7778;48.792;9.260;2023-02-04T11:55:14;10.55;;;2.38;;
15356;SDS011;7778;48.792;9.260;2023-02-04T11:58:01;10.20;;;2.58;;
15356;SDS011;7778;48.792;9.260;2023-02-04T12:00:48;8.65;;;2.88;;
15356;SDS011;7778;48.792;9.260;2023-02-04T12:03:35;5.45;;;2.08;;
15356;SDS011;7778;48.792;9.260;2023-02-04T12:06:31;8.65;;;2.00;;
15356;SDS011;7778;48.792;9.260;2023-02-04T12:09:23;7.65;;;2.03;;
15356;SDS011;7778;48.792;9.260;2023-02-04T12:12:21;12.95;;;2.85;;
15356;SDS011;7778;48.792;9.260;2023-02-04T12:15:12;8.73;;;2.15;;
15356;SDS011;7778;48.792;9.260;2023-02-04T12:18:01;6.97;;;2.10;;
15356;SDS011;7778;48.792;9.260;2023-02-04T12:20:49;7.18;;;2.03;;
15356;SDS011;7778;48.792;9.260;2023-02-04T12:23:35;10.45;;;1.83;;
15356;SDS011;7778;48.792;9.260;2023-02-04T12:26:22;9.40;;;2.05;;
15356;SDS011;7778;48.792;9.260;2023-02-04T12:29:08;11.38;;;2.40;;
15356;SDS011;7778;48.792;9.260;2023-02-04T12:31:53;6.15;;;1.60;;
15356;SDS011;7778;48.792;9.260;2023-02-04T12:34:39;8.18;;;2.45;;
15356;SDS011;7778;48.792;9.260;2023-02-04T12:37:24;8.90;;;3.00;;
15356;SDS011;7778;48.792;9.260;2023-02-04T12:40:12;7.82;;;2.55;;
15356;SDS011;7778;48.792;9.260;2023-02-04T12:43:01;7.22;;;1.92;;
15356;SDS011;7778;48.792;9.260;2023-02-04T12:45:46;8.23;;;2.15;;
15356;SDS011;7778;48.792;9.260;2023-02-04T12:48:32;7.93;;;2.30;;
15356;SDS011;7778;48.792;9.260;2023-02-04T12:51:18;7.10;;;1.55;;
15356;SDS011;7778;48.792;9.260;2023-02-04T12:54:04;5.88;;;1.80;;
15356;SDS011;7778;48.792;9.260;2023-02-04T12:56:50;5.78;;;1.67;;
15356;SDS011;7778;48.792;9.260;2023-02-04T12:59:37;5.65;;;1.70;;
15356;SDS011;7778;48.792;9.260;2023-02-04T13:02:22;6.75;;;2.08;;
15356;SDS011;7778;48.792;9.260;2023-02-04T13:05:08;4.13;;;1.77;;
15356;SDS011;7778;48.792;9.260;2023-02-04T13:07:54;9.98;;;2.10;;
15356;SDS011;7778;48.792;9.260;2023-02-04T13:10:40;3.63;;;1.77;;
15356;SDS011;7778;48.792;9.260;2023-02-04T13:13:25;5.25;;;1.60;;
15356;SDS011;7778;48.792;9.260;2023-02-04T13:16:12;11.82;;;2.33;;
15356;SDS011;7778;48.792;9.260;2023-02-04T13:18:58;8.13;;;2.83;;
15356;SDS011;7778;48.792;9.260;2023-02-04T13:21:43;11.82;;;2.35;;
15356;SDS011;7778;48.792;9.260;2023-02-04T13:24:29;6.07;;;1.65;;
15356;SDS011;7778;48.792;9.260;2023-02-04T13:27:15;14.95;;;2.58;;
15356;SDS011;7778;48.792;9.260;2023-02-04T13:30:00;5.80;;;1.73;;
15356;SDS011;7778;48.792;9.260;2023-02-04T13:32:47;1.38;;;1.25;;
15356;SDS011;7778;48.792;9.260;2023-02-04T13:35:33;3.53;;;1.67;;
15356;SDS011;7778;48.792;9.260;2023-02-04T13:38:19;5.30;;;1.83;;
15356;SDS011;7778;48.792;9.260;2023-02-04T13:41:04;8.60;;;2.03;;
15356;SDS011;7778;48.792;9.260;2023-02-04T13:43:50;7.40;;;2.10;;
15356;SDS011;7778;48.792;9.260;2023-02-04T13:46:35;7.95;;;2.08;;
15356;SDS011;7778;48.792;9.260;2023-02-04T13:49:22;9.27;;;2.67;;
15356;SDS011;7778;48.792;9.260;2023-02-04T13:52:08;4.90;;;1.52;;
15356;SDS011;7778;48.792;9.260;2023-02-04T13:54:54;8.15;;;2.17;;
15356;SDS011;7778;48.792;9.260;2023-02-04T13:57:39;8.82;;;1.98;;
15356;SDS011;7778;48.792;9.260;2023-02-04T14:00:25;6.10;;;2.00;;
15356;SDS011;7778;48.792;9.260;2023-02-04T14:03:11;3.42;;;2.05;;
15356;SDS011;7778;48.792;9.260;2023-02-04T14:05:58;9.43;;;2.47;;
15356;SDS011;7778;48.792;9.260;2023-02-04T14:08:43;5.38;;;1.73;;
15356;SDS011;7778;48.792;9.260;2023-02-04T14:11:29;8.57;;;1.90;;
15356;SDS011;7778;48.792;9.260;2023-02-04T14:14:14;10.48;;;2.25;;
15356;SDS011;7778;48.792;9.260;2023-02-04T14:17:00;8.70;;;2.30;;
15356;SDS011;7778;48.792;9.260;2023-02-04T14:19:46;4.60;;;1.88;;
15356;SDS011;7778;48.792;9.260;2023-02-04T14:22:33;10.13;;;2.03;;
15356;SDS011;7778;48.792;9.260;2023-02-04T14:25:19;8.25;;;1.73;;
15356;SDS011;7778;48.792;9.260;2023-02-04T14:28:05;6.65;;;1.35;;
15356;SDS011;7778;48.792;9.260;2023-02-04T14:30:51;6.47;;;1.48;;
15356;SDS011;7778;48.792;9.260;2023-02-04T14:33:38;10.13;;;2.15;;
15356;SDS011;7778;48.792;9.260;2023-02-04T14:36:23;10.90;;;1.92;;
15356;SDS011;7778;48.792;9.260;2023-02-04T14:39:10;7.10;;;1.95;;
15356;SDS011;7778;48.792;9.260;2023-02-04T14:41:56;8.85;;;1.65;;
15356;SDS011;7778;48.792;9.260;2023-02-04T14:44:41;3.33;;;1.02;;
15356;SDS011;7778;48.792;9.260;2023-02-04T14:47:27;8.25;;;2.15;;
15356;SDS011;7778;48.792;9.260;2023-02-04T14:50:14;4.95;;;1.50;;
15356;SDS011;7778;48.792;9.260;2023-02-04T14:53:01;9.73;;;2.25;;
15356;SDS011;7778;48.792;9.260;2023-02-04T14:55:48;4.30;;;1.60;;
15356;SDS011;7778;48.792;9.260;2023-02-04T14:58:33;8.65;;;1.95;;
15356;SDS011;7778;48.792;9.260;2023-02-04T15:01:19;5.63;;;1.83;;
15356;SDS011;7778;48.792;9.260;2023-02-04T15:04:04;7.35;;;2.72;;
15356;SDS011;7778;48.792;9.260;2023-02-04T15:06:50;8.45;;;2.10;;
15356;SDS011;7778;48.792;9.260;2023-02-04T15:09:37;11.07;;;1.50;;
15356;SDS011;7778;48.792;9.260;2023-02-04T15:12:24;4.07;;;1.23;;
15356;SDS011;7778;48.792;9.260;2023-02-04T15:15:10;11.57;;;2.42;;
15356;SDS011;7778;48.792;9.260;2023-02-04T15:17:55;7.32;;;1.48;;
15356;SDS011;7778;48.792;9.260;2023-02-04T15:20:41;9.43;;;1.73;;
15356;SDS011;7778;48.792;9.260;2023-02-04T15:23:26;3.63;;;1.60;;
15356;SDS011;7778;48.792;9.260;2023-02-04T15:26:12;8.35;;;2.05;;
15356;SDS011;7778;48.792;9.260;2023-02-04T15:29:02;6.25;;;1.95;;
15356;SDS011;7778;48.792;9.260;2023-02-04T15:31:49;5.32;;;1.30;;
15356;SDS011;7778;48.792;9.260;2023-02-04T15:34:34;6.93;;;1.83;;
15356;SDS011;7778;48.792;9.260;2023-02-04T15:37:23;3.20;;;1.35;;
15356;SDS011;7778;48.792;9.260;2023-02-04T15:40:09;9.95;;;2.65;;
15356;SDS011;7778;48.792;9.260;2023-02-04T15:42:56;3.92;;;1.88;;
15356;SDS011;7778;48.792;9.260;2023-02-04T15:45:43;3.05;;;1.75;;
15356;SDS011;7778;48.792;9.260;2023-02-04T15:48:28;11.02;;;2.47;;
15356;SDS011;7778;48.792;9.260;2023-02-04T15:51:14;10.43;;;3.42;;
15356;SDS011;7778;48.792;9.260;2023-02-04T15:53:59;11.45;;;4.90;;
15356;SDS011;7778;48.792;9.260;2023-02-04T15:56:51;12.43;;;5.22;;
15356;SDS011;7778;48.792;9.260;2023-02-04T15:59:36;12.02;;;4.57;;
15356;SDS011;7778;48.792;9.260;2023-02-04T16:02:23;10.73;;;3.92;;
15356;SDS011;7778;48.792;9.260;2023-02-04T16:05:09;5.00;;;2.25;;
15356;SDS011;7778;48.792;9.260;2023-02-04T16:07:54;4.80;;;2.50;;
15356;SDS011;7778;48.792;9.260;2023-02-04T16:10:41;5.78;;;2.03;;
15356;SDS011;7778;48.792;9.260;2023-02-04T16:13:26;3.13;;;1.63;;
15356;SDS011;7778;48.792;9.260;2023-02-04T16:16:12;1.67;;;1.08;;
15356;SDS011;7778;48.792;9.260;2023-02-04T16:18:58;6.00;;;1.80;;
15356;SDS011;7778;48.792;9.260;2023-02-04T16:21:44;10.07;;;2.33;;
15356;SDS011;7778;48.792;9.260;2023-02-04T16:24:30;9.30;;;2.50;;
15356;SDS011;7778;48.792;9.260;2023-02-04T16:27:15;7.25;;;1.90;;
15356;SDS011;7778;48.792;9.260;2023-02-04T16:30:01;8.50;;;2.10;;
15356;SDS011;7778;48.792;9.260;2023-02-04T16:32:47;2.58;;;1.48;;
15356;SDS011;7778;48.792;9.260;2023-02-04T16:38:43;9.43;;;2.92;;
15356;SDS011;7778;48.792;9.260;2023-02-04T16:41:29;9.00;;;2.60;;
15356;SDS011;7778;48.792;9.260;2023-02-04T16:44:14;8.48;;;1.95;;
15356;SDS011;7778;48.792;9.260;2023-02-04T16:47:00;5.43;;;2.22;;
15356;SDS011;7778;48.792;9.260;2023-02-04T16:49:45;4.93;;;2.17;;
15356;SDS011;7778;48.792;9.260;2023-02-04T16:52:39;6.80;;;2.10;;
15356;SDS011;7778;48.792;9.260;2023-02-04T16:55:24;8.90;;;1.85;;
15356;SDS011;7778;48.792;9.260;2023-02-04T16:58:12;7.78;;;1.92;;
15356;SDS011;7778;48.792;9.260;2023-02-04T17:00:59;7.53;;;2.22;;
15356;SDS011;7778;48.792;9.260;2023-02-04T17:03:44;5.18;;;1.92;;